Ava, MO

2:03 AM CDT on October 25, 2014 (GMT -0500)
KMOAVA4 | Change Station
CLOSE
Current Station
Personal Weather Station
Location: Ava, MO
Elevation: 1273 ft
Nearby Weather Stations

Elev 1273 ft 36.96 °N, 92.67 °W | Updated 1 second ago

Clear
Clear
52.9 °F
Feels Like 52.9 °F
N
0.0
Wind Variable Wind from WSW
Gusts 0.0 mph

Today
High -- | Low -- °F
--% Chance of Precip.
Yesterday
High -- | Low -- °F
Precip. -- in
7:27 AM 6:21 PM
New Moon, 2% visible
Pressure 30.04 in
Visibility 8.0 miles
Clouds Clear
Dew Point 48 °F
Humidity 81%
Rainfall 0.00 in
Snow Depth Not available.
UV 0 out of 12
Pollen 2.70 out of 12
Air Quality Not available.
Flu Activity No Activity
METAR KBPK 250653Z AUTO 22005KT 8SM CLR 17/14 A3005 RMK AO2 SLP170 T01670144

More Conditions Fewer Conditions

Pressure 30.04 in
Visibility 8.0 miles
Clouds Clear
Dew Point 48 °F
Humidity 81%
Rainfall 0.00 in
Snow Depth Not available.
UV 0 out of 12
Pollen 2.70 out of 12
Air Quality Not available.
Flu Activity No Activity
METAR KBPK 250653Z AUTO 22005KT 8SM CLR 17/14 A3005 RMK AO2 SLP170 T01670144

More Conditions Fewer Conditions

10-Day Weather Forecast

Almanac

Astronomy

Oct. 25, 2014 Rise Set
Actual Time 7:27 AM CDT 6:21 PM CDT
Civil Twilight 7:01 AM CDT 6:47 PM CDT
Nautical Twilight 6:30 AM CDT 7:17 PM CDT
Astronomical Twilight 6:00 AM CDT 7:48 PM CDT
Moon 9:05 AM CDT 7:46 PM CDT
Length of Visible Light 11h 46m
Length of Day
10h 53m
Tomorrow will be 2m 9s shorter.
New Moon, 2% of the Moon is Illuminated
Today
New Moon
Oct 30
First Quarter
Nov 6
Full
Nov 14
Last Quarter
Nov 22
New

Today's Extremes

State Highs State Lows

Community

WunderPhotos

Upload Photos

1,764,789 photos uploaded!

Nearby

Snow Depth

Station Depth Elevation
No new snow has been reported.

Earthquake Activity

City Distance Mag. Time & Date
No recent earthquake activity has been reported nearby.
Minimum magnitude displayed is 2.5.

Coastal Water Temperatures

Place Temperature
No Stations Reporting

Nearby Weather Stations